Time;durP1;ratioP1;P1;durP2;ratioP2;P2;SDS_P1;SDS_P2;PMS_P1;PMS_P2;Temp;Humidity;BMP_temperature;BMP_pressure;BME280_temperature;BME280_humidity;BME280_pressure;Samples;Min_cycle;Max_cycle;Signal;HPM_P1;HPM_P2
2021/07/19 00:00:22;;;;;;;8.10;4.75;;;;;;;15.57;92.34;99577.97;5050004;28;20036;-68
2021/07/19 00:02:48;;;;;;;10.60;5.10;;;;;;;15.43;92.31;99566.78;5049795;28;20190;-68
2021/07/19 00:05:16;;;;;;;11.32;5.00;;;;;;;15.43;92.82;99622.50;5048762;28;20036;-68
2021/07/19 00:07:42;;;;;;;6.78;4.13;;;;;;;15.53;92.18;99634.63;5047412;28;20034;-68
2021/07/19 00:10:10;;;;;;;8.55;4.10;;;;;;;15.42;92.24;99628.72;5050995;28;20208;-68
2021/07/19 00:12:36;;;;;;;13.75;4.30;;;;;;;15.37;92.28;99648.31;5050905;28;20025;-68
2021/07/19 00:15:04;;;;;;;7.15;4.32;;;;;;;15.33;92.42;99642.16;5049775;28;20073;-68
2021/07/19 00:17:30;;;;;;;9.65;4.20;;;;;;;15.41;92.73;99666.75;5052016;28;20059;-68
2021/07/19 00:19:55;;;;;;;6.65;4.25;;;;;;;15.42;92.34;99691.50;5049031;28;20021;-68
2021/07/19 00:22:21;;;;;;;6.03;3.75;;;;;;;15.33;92.18;99679.28;5050186;28;20017;-69
2021/07/19 00:24:47;;;;;;;5.93;3.92;;;;;;;15.31;92.30;99697.00;5051864;28;20022;-68
2021/07/19 00:27:13;;;;;;;7.63;4.00;;;;;;;15.27;92.43;99705.94;5047209;28;20024;-68
2021/07/19 00:29:39;;;;;;;6.90;4.35;;;;;;;15.23;92.18;99703.38;5049988;28;20055;-68
2021/07/19 00:32:05;;;;;;;7.82;4.47;;;;;;;15.17;92.27;99720.31;5064403;28;20059;-68
2021/07/19 00:34:31;;;;;;;8.75;4.88;;;;;;;15.13;92.65;99714.19;5049340;28;20081;-68
2021/07/19 00:36:58;;;;;;;8.30;4.30;;;;;;;15.22;92.23;99749.41;5047002;28;20025;-68
2021/07/19 00:39:24;;;;;;;8.55;4.30;;;;;;;15.24;92.13;99743.16;5049268;28;20084;-68
2021/07/19 00:41:50;;;;;;;6.45;4.30;;;;;;;15.07;92.14;99746.13;5050418;28;20029;-68
2021/07/19 00:44:19;;;;;;;6.15;4.00;;;;;;;14.83;91.97;99756.34;5047967;28;20020;-69
2021/07/19 00:46:46;;;;;;;11.70;5.20;;;;;;;14.83;93.65;99761.63;5049208;28;20106;-68
2021/07/19 00:49:13;;;;;;;8.43;4.45;;;;;;;14.86;93.72;99788.09;5048372;28;20017;-68
2021/07/19 00:51:41;;;;;;;10.73;5.07;;;;;;;14.88;93.93;99786.28;5051287;28;20092;-68
2021/07/19 00:54:08;;;;;;;12.38;4.93;;;;;;;14.86;93.33;99793.38;5047106;28;20312;-68
2021/07/19 00:56:37;;;;;;;8.18;4.95;;;;;;;14.90;93.21;99776.53;5049536;28;20316;-68
2021/07/19 00:59:03;;;;;;;8.57;4.88;;;;;;;14.91;93.17;99810.94;5050048;28;20021;-68
2021/07/19 01:01:30;;;;;;;8.70;5.03;;;;;;;14.80;93.49;99820.00;5048867;28;20256;-68
2021/07/19 01:03:59;;;;;;;17.70;5.53;;;;;;;14.85;93.63;99831.41;5047675;28;20025;-68
2021/07/19 01:06:28;;;;;;;6.95;4.00;;;;;;;14.92;93.28;99854.25;5048769;28;20019;-68
2021/07/19 01:08:55;;;;;;;9.90;4.35;;;;;;;14.88;92.77;99860.53;5047384;28;20112;-68
2021/07/19 01:11:21;;;;;;;7.28;3.70;;;;;;;14.85;92.71;99865.88;5049818;28;20021;-68
2021/07/19 01:13:46;;;;;;;9.32;4.10;;;;;;;14.82;92.61;99884.47;5048631;28;20024;-68
2021/07/19 01:16:12;;;;;;;6.10;3.83;;;;;;;14.73;92.39;99900.53;5050275;28;20037;-68
2021/07/19 01:18:37;;;;;;;9.13;4.18;;;;;;;14.73;92.78;99925.28;5050296;28;20017;-68
2021/07/19 01:21:03;;;;;;;9.38;4.00;;;;;;;14.65;92.71;99858.25;5049675;28;20045;-68
2021/07/19 01:23:59;;;;;;;9.82;3.88;;;;;;;14.60;92.59;99912.22;5046047;28;20216;-68
2021/07/19 01:26:55;;;;;;;9.02;4.43;;;;;;;14.57;92.35;99910.50;5044926;28;20051;-68
2021/07/19 01:29:21;;;;;;;9.63;4.22;;;;;;;14.61;92.31;99924.56;5060447;28;20024;-68
2021/07/19 01:31:48;;;;;;;8.52;3.92;;;;;;;14.54;92.33;99922.91;5059990;28;20130;-68
2021/07/19 01:34:18;;;;;;;8.70;3.90;;;;;;;14.48;92.82;99954.78;5061055;28;20017;-68
2021/07/19 01:36:47;;;;;;;6.13;3.70;;;;;;;14.47;92.62;99991.03;5061098;28;20021;-68
2021/07/19 01:39:13;;;;;;;14.55;3.42;;;;;;;14.39;92.62;99982.28;5063061;28;20024;-68
2021/07/19 01:41:40;;;;;;;5.15;3.50;;;;;;;14.37;92.78;100012.34;5064644;28;20216;-68
2021/07/19 01:44:06;;;;;;;7.50;3.63;;;;;;;14.37;92.91;100026.44;5064505;28;20031;-68
2021/07/19 01:46:33;;;;;;;4.93;3.30;;;;;;;14.36;92.71;100039.72;5064526;28;20025;-68
2021/07/19 01:49:00;;;;;;;7.22;3.63;;;;;;;14.35;92.88;100032.66;5064073;28;20220;-68
2021/07/19 01:51:27;;;;;;;6.05;3.83;;;;;;;14.40;93.13;100083.84;5054914;28;20021;-68
2021/07/19 01:53:54;;;;;;;7.18;3.70;;;;;;;14.46;92.75;100086.41;5047529;28;20021;-68
2021/07/19 01:56:20;;;;;;;7.13;3.58;;;;;;;14.40;92.75;100025.56;5048660;28;20051;-68
2021/07/19 01:58:46;;;;;;;5.20;3.58;;;;;;;14.23;93.16;100048.69;5050681;28;20049;-68
2021/07/19 02:01:13;;;;;;;5.47;3.20;;;;;;;14.21;93.17;100053.13;5047928;28;20357;-68
2021/07/19 02:03:38;;;;;;;5.72;4.00;;;;;;;14.24;93.35;100082.25;5047599;28;20189;-68
2021/07/19 02:06:07;;;;;;;7.65;3.50;;;;;;;14.20;93.33;100080.47;5049268;28;20070;-68
2021/07/19 02:08:34;;;;;;;5.35;2.92;;;;;;;14.15;92.89;100116.75;5045568;28;20045;-68
2021/07/19 02:11:00;;;;;;;6.53;3.58;;;;;;;14.14;92.97;100117.66;5046477;28;20031;-68
2021/07/19 02:13:28;;;;;;;4.65;3.20;;;;;;;14.06;92.81;100098.28;5046435;28;20088;-68
2021/07/19 02:15:55;;;;;;;9.77;3.45;;;;;;;14.04;92.92;100142.44;5048664;28;20044;-68
2021/07/19 02:18:23;;;;;;;8.32;3.75;;;;;;;14.07;93.17;100169.78;5048721;28;20017;-68
2021/07/19 02:20:50;;;;;;;7.65;3.92;;;;;;;13.99;92.96;100191.91;5045172;28;20025;-68
2021/07/19 02:23:17;;;;;;;11.25;3.88;;;;;;;14.01;93.17;100190.13;5053972;28;20021;-68
2021/07/19 02:25:43;;;;;;;8.07;3.83;;;;;;;13.93;93.26;100165.50;5060767;28;20032;-68
2021/07/19 02:28:12;;;;;;;11.63;4.55;;;;;;;14.00;93.71;100177.78;5060725;28;20084;-68
2021/07/19 02:30:41;;;;;;;7.57;4.10;;;;;;;13.90;93.28;100197.28;5051648;28;20059;-68
2021/07/19 02:33:07;;;;;;;7.00;3.92;;;;;;;13.92;93.42;100206.09;5052712;28;20017;-68
2021/07/19 02:35:33;;;;;;;10.10;4.55;;;;;;;13.93;93.42;100210.50;5059264;28;20040;-68
2021/07/19 02:38:03;;;;;;;5.50;4.03;;;;;;;13.89;93.50;100232.59;5056812;28;20024;-68
2021/07/19 02:40:29;;;;;;;7.40;3.95;;;;;;;13.95;93.57;100243.13;5058726;28;20021;-67
2021/07/19 02:43:00;;;;;;;11.00;3.63;;;;;;;13.92;92.78;100275.78;5060203;28;20025;-67
2021/07/19 02:45:27;;;;;;;8.32;3.80;;;;;;;13.92;92.99;100244.00;5059500;28;20074;-67
2021/07/19 02:47:55;;;;;;;6.60;4.13;;;;;;;13.79;92.49;100246.78;5056889;28;20354;-67
2021/07/19 02:50:24;;;;;;;14.40;4.80;;;;;;;13.86;92.92;100274.97;5060508;28;20316;-67
2021/07/19 02:52:51;;;;;;;9.90;4.43;;;;;;;13.82;92.75;100336.72;5056832;28;20024;-67
2021/07/19 02:55:18;;;;;;;9.52;3.83;;;;;;;13.85;92.73;100281.13;5062851;28;20025;-67
2021/07/19 02:57:44;;;;;;;15.48;4.10;;;;;;;13.83;92.52;100341.16;5063134;28;20024;-67
2021/07/19 03:00:12;;;;;;;7.25;3.63;;;;;;;13.74;92.44;100298.84;5049650;28;20018;-67
2021/07/19 03:02:41;;;;;;;10.88;3.72;;;;;;;13.68;92.48;100293.59;5059612;28;20078;-67
2021/07/19 03:05:09;;;;;;;9.63;3.70;;;;;;;13.65;92.49;100328.91;5058720;28;20219;-67
2021/07/19 03:07:37;;;;;;;7.90;4.15;;;;;;;13.65;92.72;100394.16;5052507;28;20107;-67
2021/07/19 03:10:05;;;;;;;10.77;3.45;;;;;;;13.68;92.58;100338.56;5047471;28;20032;-67
2021/07/19 03:12:33;;;;;;;10.02;3.58;;;;;;;13.63;92.47;100372.09;5047422;28;20017;-67
2021/07/19 03:14:58;;;;;;;10.05;3.53;;;;;;;13.49;92.86;100252.25;5047416;28;20021;-67
2021/07/19 03:17:26;;;;;;;5.65;3.85;;;;;;;13.44;92.72;100301.66;5050859;28;20017;-67
2021/07/19 03:19:53;;;;;;;7.00;4.05;;;;;;;13.44;93.35;100325.47;5050807;28;20025;-67
2021/07/19 03:22:20;;;;;;;7.70;3.45;;;;;;;13.49;92.90;100368.63;5049617;28;20106;-67
2021/07/19 03:24:48;;;;;;;14.98;4.22;;;;;;;13.49;92.52;100417.16;5050575;28;20240;-68
2021/07/19 03:27:13;;;;;;;7.65;3.92;;;;;;;13.53;92.54;100380.97;5051834;28;20213;-67
2021/07/19 03:29:39;;;;;;;7.68;3.70;;;;;;;13.53;92.76;100354.50;5051262;28;20017;-67
2021/07/19 03:32:05;;;;;;;15.68;3.80;;;;;;;13.46;92.48;100328.97;5048701;28;20055;-67
2021/07/19 03:34:31;;;;;;;14.95;4.25;;;;;;;13.44;92.52;100396.91;5050551;28;20308;-67
2021/07/19 03:36:57;;;;;;;18.38;3.53;;;;;;;13.41;92.60;100400.41;5049802;28;20084;-67
2021/07/19 03:39:23;;;;;;;5.82;3.58;;;;;;;13.37;92.62;100426.88;5050797;28;20028;-67
2021/07/19 03:41:53;;;;;;;8.05;3.47;;;;;;;13.37;92.89;100495.63;5051521;28;20018;-67
2021/07/19 03:44:19;;;;;;;10.10;3.58;;;;;;;13.35;92.90;100440.09;5050280;28;20267;-67
2021/07/19 03:46:45;;;;;;;26.10;4.78;;;;;;;13.37;93.22;100448.03;5051381;28;20017;-67
2021/07/19 03:49:16;;;;;;;7.90;3.92;;;;;;;13.42;92.94;100552.06;5049133;28;20025;-67
2021/07/19 03:51:43;;;;;;;6.15;3.50;;;;;;;13.37;92.41;100519.44;5062629;28;20021;-67
2021/07/19 03:54:09;;;;;;;6.32;3.58;;;;;;;13.32;92.80;100502.72;5061755;28;20017;-67
2021/07/19 03:56:36;;;;;;;6.57;4.00;;;;;;;13.42;92.97;100485.94;5055951;28;20080;-67
2021/07/19 03:59:02;;;;;;;5.60;3.42;;;;;;;13.48;92.85;100493.88;5050099;28;20025;-67
2021/07/19 04:01:29;;;;;;;9.20;3.95;;;;;;;13.47;92.29;100519.44;5056093;28;20037;-67
2021/07/19 04:03:56;;;;;;;8.65;4.03;;;;;;;13.50;92.49;100518.53;5059892;28;20025;-67
2021/07/19 04:06:23;;;;;;;7.97;4.85;;;;;;;13.54;92.46;100628.81;5064316;28;20036;-67
2021/07/19 04:08:50;;;;;;;5.63;4.10;;;;;;;13.59;92.41;100571.47;5062542;28;20435;-67
2021/07/19 04:11:19;;;;;;;10.27;3.50;;;;;;;13.60;92.41;100589.13;5061886;28;20088;-67
2021/07/19 04:13:45;;;;;;;10.38;4.07;;;;;;;13.52;92.05;100495.63;5060381;28;20304;-67
2021/07/19 04:16:14;;;;;;;11.18;4.50;;;;;;;13.51;92.24;100457.69;5058004;28;20052;-67
2021/07/19 04:18:41;;;;;;;12.75;5.00;;;;;;;13.53;93.04;100545.88;5066240;28;20055;-67
2021/07/19 04:21:06;;;;;;;10.93;4.60;;;;;;;13.65;92.92;100534.41;5066205;28;20216;-67
2021/07/19 04:23:32;;;;;;;10.55;4.22;;;;;;;13.57;92.46;100583.81;5066041;28;20029;-67
2021/07/19 04:25:58;;;;;;;13.38;4.45;;;;;;;13.66;92.54;100557.31;5066065;28;20029;-67
2021/07/19 04:28:24;;;;;;;10.32;4.07;;;;;;;13.68;92.38;100545.00;5066064;28;20056;-67
2021/07/19 04:30:50;;;;;;;12.82;4.32;;;;;;;13.70;92.32;100575.84;5065973;28;20032;-67
2021/07/19 04:33:22;;;;;;;5.75;3.65;;;;;;;13.79;92.40;100602.31;5065913;28;20013;-67
2021/07/19 04:35:48;;;;;;;8.75;3.50;;;;;;;13.79;92.28;100717.94;5065891;28;20239;-67
2021/07/19 04:38:21;;;;;;;6.97;3.63;;;;;;;13.88;92.60;100627.88;5065891;28;20024;-67
2021/07/19 04:40:50;;;;;;;4.72;2.72;;;;;;;14.02;92.02;100631.41;5065841;28;20131;-67
2021/07/19 04:43:16;;;;;;;5.88;3.25;;;;;;;14.07;92.31;100640.22;5065700;28;20036;-67
2021/07/19 04:45:42;;;;;;;5.82;3.13;;;;;;;14.12;91.83;100647.31;5065713;28;20024;-67
2021/07/19 04:48:07;;;;;;;8.13;2.80;;;;;;;14.31;91.63;100714.41;5065728;28;20025;-67
2021/07/19 04:50:33;;;;;;;4.63;3.20;;;;;;;14.91;90.54;100674.47;5064461;28;20119;-67
2021/07/19 04:52:59;;;;;;;9.35;3.45;;;;;;;15.67;87.81;100630.69;5065585;28;20028;-67
2021/07/19 04:55:26;;;;;;;4.93;3.00;;;;;;;16.38;84.44;100715.03;5065519;28;20029;-67
2021/07/19 04:57:55;;;;;;;8.80;2.75;;;;;;;16.89;81.67;100619.63;5065523;28;20024;-67
2021/07/19 05:00:20;;;;;;;8.15;2.60;;;;;;;17.23;80.86;100554.38;5065438;28;20087;-67
2021/07/19 05:02:49;;;;;;;7.93;2.80;;;;;;;17.76;78.36;100541.97;5065251;28;20079;-67
2021/07/19 05:05:19;;;;;;;4.63;3.10;;;;;;;18.18;77.03;100543.81;5065300;28;20013;-67
2021/07/19 05:07:46;;;;;;;5.75;2.67;;;;;;;18.49;75.74;100529.88;5065323;28;20041;-67
2021/07/19 05:10:16;;;;;;;5.55;2.75;;;;;;;18.92;75.25;100551.16;5065305;28;20021;-67
2021/07/19 05:12:43;;;;;;;14.05;3.72;;;;;;;19.32;74.00;100540.41;5065221;28;20016;-67
2021/07/19 05:15:14;;;;;;;8.85;2.88;;;;;;;19.56;71.62;100537.16;5065389;28;20045;-67
2021/07/19 05:17:40;;;;;;;8.73;3.22;;;;;;;19.70;70.80;100522.50;5065113;28;20236;-67
2021/07/19 05:20:14;;;;;;;10.38;3.28;;;;;;;19.87;71.56;100508.72;5065057;28;20430;-67
2021/07/19 05:22:53;;;;;;;10.63;3.42;;;;;;;19.97;71.65;100495.06;5065032;28;20028;-67
2021/07/19 05:25:25;;;;;;;7.43;3.35;;;;;;;20.34;70.25;100505.63;5064580;28;20111;-67
2021/07/19 05:28:06;;;;;;;11.40;2.97;;;;;;;20.34;70.92;100490.44;5064926;28;20312;-67
2021/07/19 05:30:35;;;;;;;9.10;3.60;;;;;;;20.90;69.62;100513.69;5064869;28;20032;-67
2021/07/19 05:33:01;;;;;;;8.20;3.10;;;;;;;21.13;68.92;100500.47;5064815;28;20021;-67
2021/07/19 05:35:26;;;;;;;6.00;3.47;;;;;;;21.62;68.52;100513.09;5063586;28;20044;-67
2021/07/19 05:37:52;;;;;;;6.47;3.05;;;;;;;22.02;67.38;100509.94;5064709;28;20017;-67
2021/07/19 05:40:18;;;;;;;7.35;3.13;;;;;;;22.16;67.17;100502.25;5064693;28;20084;-67
2021/07/19 05:42:44;;;;;;;9.23;3.40;;;;;;;22.14;67.18;100474.59;5064716;28;20255;-67
2021/07/19 05:45:11;;;;;;;6.85;3.40;;;;;;;22.45;67.34;100477.88;5064550;28;20029;-68
2021/07/19 05:47:37;;;;;;;12.68;3.28;;;;;;;23.02;66.10;100497.09;5064533;28;20127;-68
2021/07/19 05:50:04;;;;;;;12.68;2.70;;;;;;;23.26;64.84;100480.03;5064515;28;20247;-68
2021/07/19 05:52:30;;;;;;;4.55;2.90;;;;;;;23.56;63.68;100489.47;5064502;28;20066;-68
2021/07/19 05:54:58;;;;;;;9.52;3.40;;;;;;;23.54;64.77;100459.06;5064432;28;20017;-68
2021/07/19 05:57:27;;;;;;;4.63;3.35;;;;;;;23.78;64.12;100455.31;5064403;28;20044;-68
2021/07/19 05:59:56;;;;;;;9.35;4.97;;;;;;;23.87;64.24;100430.72;5064340;28;20320;-67
2021/07/19 06:02:25;;;;;;;9.77;6.20;;;;;;;24.10;63.22;100427.88;5064283;28;20021;-67
2021/07/19 06:04:50;;;;;;;13.38;4.60;;;;;;;24.69;63.43;100457.44;5064075;28;20021;-67
2021/07/19 06:07:16;;;;;;;12.60;5.07;;;;;;;24.61;62.01;100417.34;5064035;28;20051;-67
2021/07/19 06:09:42;;;;;;;10.98;5.05;;;;;;;24.93;62.36;100416.69;5064265;28;20028;-67
2021/07/19 06:12:08;;;;;;;11.07;5.32;;;;;;;25.44;61.31;100326.06;5064147;28;20063;-67
2021/07/19 06:14:33;;;;;;;12.15;5.80;;;;;;;26.09;58.36;100358.47;5064080;28;20024;-67
2021/07/19 06:16:59;;;;;;;10.30;4.63;;;;;;;25.82;61.40;100311.38;5064086;28;20035;-67
2021/07/19 06:19:24;;;;;;;8.93;5.32;;;;;;;26.28;58.45;100332.19;5064090;28;20115;-67
2021/07/19 06:21:49;;;;;;;9.68;5.60;;;;;;;26.54;57.24;100326.19;5064056;28;20036;-67
2021/07/19 06:24:15;;;;;;;9.77;5.78;;;;;;;26.82;55.72;100329.03;5063906;28;20020;-67
2021/07/19 06:26:41;;;;;;;11.15;5.68;;;;;;;27.04;55.38;100324.09;5063957;28;20085;-67
2021/07/19 06:29:06;;;;;;;7.30;5.75;;;;;;;26.57;58.56;100301.66;5063925;28;20029;-67
2021/07/19 06:31:32;;;;;;;12.73;5.95;;;;;;;26.36;57.26;100278.63;5063875;28;20024;-67
2021/07/19 06:33:57;;;;;;;8.45;5.63;;;;;;;27.01;56.02;100289.13;5063839;28;20052;-67
2021/07/19 06:36:23;;;;;;;12.30;5.63;;;;;;;26.90;55.69;100256.50;5063731;28;20021;-67
2021/07/19 06:38:49;;;;;;;9.20;5.25;;;;;;;27.14;55.50;100260.41;5063817;28;20021;-67
2021/07/19 06:41:14;;;;;;;9.15;5.68;;;;;;;27.04;54.39;100243.00;5063777;28;20051;-67
2021/07/19 06:43:40;;;;;;;13.07;6.07;;;;;;;27.34;54.49;100251.97;5063697;28;20048;-67
2021/07/19 06:46:06;;;;;;;10.27;5.70;;;;;;;27.21;55.21;100230.19;5063731;28;20024;-67
2021/07/19 06:48:33;;;;;;;11.82;5.93;;;;;;;27.13;55.11;100200.06;5063732;28;20028;-67
2021/07/19 06:50:59;;;;;;;10.27;5.72;;;;;;;27.63;53.75;100226.66;5063711;28;20370;-67
2021/07/19 06:53:24;;;;;;;10.55;5.97;;;;;;;26.90;54.24;100180.81;5063629;28;20041;-67
2021/07/19 06:55:50;;;;;;;9.30;5.28;;;;;;;26.80;55.86;100164.28;5063640;28;20021;-67
2021/07/19 06:58:15;;;;;;;9.07;5.30;;;;;;;27.58;54.46;100193.63;5063650;28;20083;-67
2021/07/19 07:00:40;;;;;;;9.10;5.72;;;;;;;27.30;53.53;100163.88;5063579;28;20025;-67
2021/07/19 07:03:06;;;;;;;8.88;5.55;;;;;;;27.69;54.29;100180.28;5063445;28;20028;-67
2021/07/19 07:05:31;;;;;;;9.00;5.13;;;;;;;28.22;51.61;100199.28;5063574;28;20032;-67
2021/07/19 07:07:56;;;;;;;10.45;5.22;;;;;;;28.09;52.17;100182.13;5063405;28;20109;-67
2021/07/19 07:10:23;;;;;;;9.20;5.72;;;;;;;28.05;51.45;100166.19;5063550;28;20031;-67
2021/07/19 07:12:48;;;;;;;6.88;5.30;;;;;;;28.15;50.68;100165.47;5063492;28;20044;-67
2021/07/19 07:15:14;;;;;;;12.80;5.47;;;;;;;27.91;51.31;100136.47;5063484;28;20017;-67
2021/07/19 07:17:40;;;;;;;8.82;5.63;;;;;;;27.92;51.74;100121.94;5063429;28;20043;-67
2021/07/19 07:20:08;;;;;;;8.00;5.35;;;;;;;28.11;52.41;100115.22;5063455;28;20052;-67
2021/07/19 07:22:33;;;;;;;8.38;5.28;;;;;;;27.77;52.28;100077.81;5063351;28;20151;-67
2021/07/19 07:24:59;;;;;;;7.90;5.45;;;;;;;28.23;52.02;100095.44;5063258;28;20033;-67
2021/07/19 07:27:24;;;;;;;11.52;4.78;;;;;;;29.22;50.09;100149.88;5062180;28;20025;-67
2021/07/19 07:29:50;;;;;;;17.50;5.43;;;;;;;29.38;49.76;100127.97;5063317;28;20025;-67
2021/07/19 07:32:16;;;;;;;7.97;5.15;;;;;;;28.99;49.67;100083.72;5063324;28;20029;-67
2021/07/19 07:34:41;;;;;;;10.57;4.88;;;;;;;29.27;49.82;100092.59;5063319;28;20021;-67
2021/07/19 07:37:08;;;;;;;12.35;5.30;;;;;;;29.05;49.77;100056.16;5063320;28;20029;-67
2021/07/19 07:39:34;;;;;;;8.80;5.10;;;;;;;28.75;49.94;100031.25;5062125;28;20029;-69
2021/07/19 07:42:00;;;;;;;8.32;5.30;;;;;;;29.15;49.85;100050.97;5063265;28;20036;-68
2021/07/19 07:44:25;;;;;;;8.50;5.22;;;;;;;29.94;49.01;100073.06;5063175;28;20074;-68
2021/07/19 07:46:51;;;;;;;9.45;5.50;;;;;;;30.07;46.33;100063.00;5062569;28;20036;-68
2021/07/19 07:49:19;;;;;;;10.55;4.70;;;;;;;29.35;49.50;100003.38;5065671;28;20320;-68
2021/07/19 07:51:44;;;;;;;9.05;5.03;;;;;;;29.64;48.26;100018.38;5066754;28;20032;-68
2021/07/19 07:54:10;;;;;;;7.35;5.15;;;;;;;29.78;48.76;100007.34;5066796;28;20048;-68
2021/07/19 07:56:36;;;;;;;10.48;5.07;;;;;;;30.41;46.32;100033.16;5066665;28;20254;-68
2021/07/19 07:59:01;;;;;;;9.13;5.07;;;;;;;30.37;47.40;100028.06;5066621;28;20075;-68
2021/07/19 08:01:26;;;;;;;8.20;5.25;;;;;;;29.79;48.34;99960.19;5066621;28;20379;-68
2021/07/19 08:03:52;;;;;;;7.68;4.80;;;;;;;29.70;48.59;99944.63;5065222;28;20053;-68
2021/07/19 08:06:17;;;;;;;7.75;4.63;;;;;;;30.13;47.21;99964.75;5066504;28;20021;-68
2021/07/19 08:08:43;;;;;;;7.97;4.65;;;;;;;30.46;46.93;99979.28;5066264;28;20045;-68
2021/07/19 08:11:08;;;;;;;9.25;4.50;;;;;;;30.40;46.11;99949.03;5066686;28;20058;-68
2021/07/19 08:13:34;;;;;;;11.43;4.78;;;;;;;30.42;46.77;99934.31;5066504;28;20266;-68
2021/07/19 08:15:59;;;;;;;10.77;5.00;;;;;;;30.33;46.55;99907.00;5066319;28;20028;-68
2021/07/19 08:18:25;;;;;;;7.35;3.92;;;;;;;30.68;47.77;99918.63;5066270;28;20024;-68
2021/07/19 08:20:50;;;;;;;10.38;4.65;;;;;;;30.99;47.61;99928.75;5066202;28;20084;-68
2021/07/19 08:23:16;;;;;;;7.20;4.20;;;;;;;30.70;45.67;99894.91;5066124;28;20032;-68
2021/07/19 08:25:41;;;;;;;7.72;4.53;;;;;;;30.46;47.41;99872.41;5066139;28;20024;-68
2021/07/19 08:28:07;;;;;;;11.32;3.95;;;;;;;30.70;46.86;99874.03;5066081;28;20044;-68
2021/07/19 08:30:32;;;;;;;6.55;4.40;;;;;;;30.96;46.26;99875.47;5066025;28;20036;-68
2021/07/19 08:32:58;;;;;;;8.07;4.25;;;;;;;31.19;44.78;99870.81;5065995;28;20067;-68
2021/07/19 08:35:24;;;;;;;9.15;4.60;;;;;;;30.80;45.08;99828.81;5065918;28;20021;-68
2021/07/19 08:37:52;;;;;;;10.98;4.60;;;;;;;31.21;45.89;99841.63;5065909;28;20367;-68
2021/07/19 08:40:20;;;;;;;7.47;3.90;;;;;;;30.91;46.66;99811.59;5065845;28;20219;-68
2021/07/19 08:42:46;;;;;;;8.43;4.15;;;;;;;31.13;44.47;99811.50;5065803;28;20316;-68
2021/07/19 08:45:13;;;;;;;7.22;4.20;;;;;;;31.52;43.03;99819.00;5065673;28;20322;-68
2021/07/19 08:47:41;;;;;;;9.57;4.65;;;;;;;30.86;44.03;99767.59;5065707;28;20032;-68
2021/07/19 08:50:08;;;;;;;13.27;4.88;;;;;;;30.45;44.05;99732.97;5065671;28;20067;-68
2021/07/19 08:52:34;;;;;;;8.60;4.28;;;;;;;30.62;44.78;99745.16;5065591;28;20074;-68
2021/07/19 08:55:02;;;;;;;8.85;4.18;;;;;;;30.82;44.74;99749.81;5065594;28;20025;-68
2021/07/19 08:57:27;;;;;;;9.68;4.30;;;;;;;30.52;45.60;99727.88;5065526;28;20025;-68
2021/07/19 08:59:56;;;;;;;8.43;4.38;;;;;;;30.84;42.84;99737.81;5064327;28;20088;-68
2021/07/19 09:02:21;;;;;;;11.15;4.03;;;;;;;30.79;44.69;99714.72;5065464;28;20025;-68
2021/07/19 09:04:47;;;;;;;7.85;4.28;;;;;;;31.11;44.02;99731.88;5065244;28;20225;-68
2021/07/19 09:07:12;;;;;;;7.30;4.05;;;;;;;31.28;43.71;99716.88;5065169;28;20088;-68
2021/07/19 09:09:38;;;;;;;4.57;3.75;;;;;;;32.01;42.29;99744.78;5065300;28;20075;-68
2021/07/19 09:12:05;;;;;;;8.07;4.28;;;;;;;31.77;42.17;99704.25;5065237;28;20070;-68
2021/07/19 09:14:31;;;;;;;9.40;4.28;;;;;;;31.49;42.03;99675.03;5065223;28;20028;-68
2021/07/19 09:16:57;;;;;;;8.70;4.47;;;;;;;32.01;42.62;99740.19;5065089;28;20025;-67
2021/07/19 09:19:25;;;;;;;10.63;4.10;;;;;;;31.85;44.42;99701.72;5065115;28;20131;-67
2021/07/19 09:21:59;;;;;;;6.32;3.92;;;;;;;31.71;43.26;99688.44;5065029;28;20088;-67
2021/07/19 09:24:29;;;;;;;7.55;4.20;;;;;;;31.72;40.44;99662.94;5065178;28;20032;-67
2021/07/19 09:26:56;;;;;;;7.23;4.23;;;;;;;31.54;43.96;99640.06;5065042;28;20020;-67
2021/07/19 09:29:23;;;;;;;6.85;4.10;;;;;;;31.76;42.19;99664.38;5064965;28;20040;-67
2021/07/19 09:31:59;;;;;;;6.88;4.28;;;;;;;31.31;44.22;99630.38;5065136;28;20024;-67
2021/07/19 09:34:27;;;;;;;10.93;4.03;;;;;;;31.39;41.73;99619.69;5064832;28;20024;-67
2021/07/19 09:37:07;;;;;;;9.93;3.70;;;;;;;32.08;41.58;99642.44;5064764;28;20312;-67
2021/07/19 09:39:39;;;;;;;5.57;4.20;;;;;;;30.86;40.56;99555.50;5064768;28;20267;-67
2021/07/19 09:42:10;;;;;;;8.10;3.83;;;;;;;31.20;41.29;100237.16;5064697;28;20025;-67
2021/07/19 09:44:36;;;;;;;9.20;3.83;;;;;;;31.99;40.00;99965.59;5064627;28;20092;-67
2021/07/19 09:47:08;;;;;;;7.82;4.07;;;;;;;31.60;40.54;99789.25;5064559;28;20025;-67
2021/07/19 09:49:34;;;;;;;8.93;3.97;;;;;;;31.47;41.54;99744.19;5064613;28;20025;-67
2021/07/19 09:52:09;;;;;;;9.05;3.70;;;;;;;32.03;39.39;99731.88;5064538;28;20096;-67
2021/07/19 09:54:44;;;;;;;9.95;4.18;;;;;;;32.59;39.49;99736.63;5063318;28;20378;-68
2021/07/19 09:57:11;;;;;;;7.00;4.00;;;;;;;32.39;39.53;100231.00;5064423;28;20023;-68
2021/07/19 09:59:51;;;;;;;7.05;4.30;;;;;;;32.31;42.24;100033.66;5064395;28;20115;-68
2021/07/19 10:02:35;;;;;;;8.05;3.95;;;;;;;31.81;39.74;99922.69;5064350;28;20020;-68
2021/07/19 10:05:01;;;;;;;7.47;3.80;;;;;;;32.00;37.76;99705.78;5064121;28;20063;-68
2021/07/19 10:07:27;;;;;;;10.55;4.38;;;;;;;31.87;38.24;99656.16;5064057;28;20049;-68
2021/07/19 10:09:59;;;;;;;9.93;4.28;;;;;;;31.83;38.99;99651.97;5063952;28;20430;-68
2021/07/19 10:12:25;;;;;;;7.38;4.28;;;;;;;32.08;40.33;99654.19;5064127;28;20028;-68
2021/07/19 10:14:51;;;;;;;8.43;4.47;;;;;;;32.22;40.98;99656.53;5064132;28;20017;-68
2021/07/19 10:17:18;;;;;;;7.25;3.80;;;;;;;32.24;39.17;99632.69;5064089;28;20028;-68
2021/07/19 10:19:44;;;;;;;9.98;3.92;;;;;;;31.87;41.77;99606.25;5064059;28;20021;-68
2021/07/19 10:22:11;;;;;;;11.68;4.43;;;;;;;31.96;41.36;99617.19;5064026;28;20047;-68
2021/07/19 10:24:44;;;;;;;6.78;4.22;;;;;;;32.50;41.52;99633.91;5063902;28;20075;-68
2021/07/19 10:27:12;;;;;;;9.07;4.63;;;;;;;32.61;39.54;99625.56;5063945;28;20046;-68
2021/07/19 10:29:38;;;;;;;5.13;3.78;;;;;;;31.16;41.19;99536.47;5063955;28;20211;-68
2021/07/19 10:32:05;;;;;;;9.27;4.65;;;;;;;31.13;40.58;99534.06;5063953;28;20032;-68
2021/07/19 10:34:30;;;;;;;6.55;4.40;;;;;;;30.92;39.21;99511.47;5063862;28;20017;-68
2021/07/19 10:37:01;;;;;;;9.27;4.10;;;;;;;31.45;37.99;99537.50;5063874;28;20044;-68
2021/07/19 10:39:34;;;;;;;7.55;3.80;;;;;;;31.69;39.24;99589.69;5063928;28;20032;-68
2021/07/19 10:42:05;;;;;;;10.07;3.83;;;;;;;31.79;38.61;99576.13;5063862;28;20021;-68
2021/07/19 10:44:34;;;;;;;7.28;4.30;;;;;;;31.74;41.20;99562.91;5063717;28;20248;-68
2021/07/19 10:47:10;;;;;;;9.15;3.85;;;;;;;32.00;38.29;99546.94;5063801;28;20027;-68
2021/07/19 10:49:41;;;;;;;7.13;3.78;;;;;;;32.09;37.80;99535.19;5063963;28;20224;-68
2021/07/19 10:52:12;;;;;;;7.22;3.63;;;;;;;32.18;38.00;99523.44;5063786;28;20091;-68
2021/07/19 10:54:50;;;;;;;10.23;3.80;;;;;;;31.59;39.11;99479.91;5063681;28;20021;-68
2021/07/19 10:57:18;;;;;;;10.52;3.67;;;;;;;31.59;42.17;99482.66;5063703;28;20079;-68
2021/07/19 11:00:00;;;;;;;9.18;3.58;;;;;;;31.82;40.44;99481.41;5063634;28;20316;-68
2021/07/19 11:02:29;;;;;;;6.32;3.67;;;;;;;31.06;40.48;99437.66;5062654;28;20338;-68
2021/07/19 11:04:56;;;;;;;8.23;3.63;;;;;;;31.22;39.59;99446.16;5063476;28;20025;-68
2021/07/19 11:07:25;;;;;;;5.18;3.60;;;;;;;31.19;37.29;99424.66;5063286;28;20082;-68
2021/07/19 11:09:51;;;;;;;5.40;3.55;;;;;;;30.84;40.64;99414.25;5063583;28;20025;-68
2021/07/19 11:12:16;;;;;;;6.22;3.50;;;;;;;30.80;38.61;99409.22;5062362;28;20099;-68
2021/07/19 11:14:57;;;;;;;6.72;2.97;;;;;;;31.52;38.46;99435.22;5063518;28;20043;-68
2021/07/19 11:17:28;;;;;;;7.07;3.33;;;;;;;31.45;38.21;99414.16;5063523;28;20100;-68
2021/07/19 11:19:56;;;;;;;7.40;3.15;;;;;;;30.86;42.24;99389.66;5063508;28;20025;-68
2021/07/19 11:22:24;;;;;;;6.90;3.17;;;;;;;31.30;40.00;99405.53;5064815;28;20033;-68
2021/07/19 11:24:52;;;;;;;7.82;3.30;;;;;;;31.20;38.72;99382.88;5067221;28;20068;-68
2021/07/19 11:27:38;;;;;;;7.30;2.95;;;;;;;31.63;39.56;99401.56;5067271;28;20316;-68